createdAt,value
2023-05-12T00:02:16.563Z,9.77
2023-05-12T00:04:43.947Z,9.70
2023-05-12T00:07:12.460Z,9.70
2023-05-12T00:09:41.586Z,9.67
2023-05-12T00:12:09.698Z,9.58
2023-05-12T00:14:37.218Z,9.52
2023-05-12T00:17:06.668Z,9.58
2023-05-12T00:19:34.758Z,9.66
2023-05-12T00:22:02.725Z,9.59
2023-05-12T00:24:30.682Z,9.46
2023-05-12T00:26:58.081Z,9.42
2023-05-12T00:29:25.531Z,9.44
2023-05-12T00:31:53.099Z,9.50
2023-05-12T00:34:20.574Z,9.55
2023-05-12T00:36:47.950Z,9.52
2023-05-12T00:39:15.372Z,9.51
2023-05-12T00:41:42.801Z,9.38
2023-05-12T00:44:10.611Z,9.31
2023-05-12T00:46:39.298Z,9.41
2023-05-12T00:49:07.910Z,9.38
2023-05-12T00:51:35.400Z,9.42
2023-05-12T00:54:02.826Z,9.42
2023-05-12T00:56:30.313Z,9.35
2023-05-12T00:58:57.644Z,9.28
2023-05-12T01:01:25.032Z,9.29
2023-05-12T01:03:52.982Z,9.43
2023-05-12T01:07:01.742Z,9.24
2023-05-12T01:09:29.623Z,9.27
2023-05-12T01:11:56.958Z,9.24
2023-05-12T01:14:24.366Z,9.17
2023-05-12T01:16:53.469Z,9.20
2023-05-12T01:19:52.212Z,9.16
2023-05-12T01:22:19.828Z,9.17
2023-05-12T01:24:57.745Z,9.14
2023-05-12T01:27:27.486Z,9.25
2023-05-12T01:29:58.657Z,9.21
2023-05-12T01:32:26.478Z,9.24
2023-05-12T01:34:53.892Z,9.17
2023-05-12T01:37:21.701Z,9.21
2023-05-12T01:39:49.055Z,9.21
2023-05-12T01:42:16.418Z,9.29
2023-05-12T01:44:43.882Z,9.32
2023-05-12T01:47:11.551Z,9.28
2023-05-12T01:49:38.985Z,9.32
2023-05-12T01:52:07.051Z,9.21
2023-05-12T01:54:34.655Z,9.24
2023-05-12T01:57:02.036Z,9.18
2023-05-12T01:59:29.683Z,9.13
2023-05-12T02:01:57.166Z,9.18
2023-05-12T02:04:24.864Z,9.07
2023-05-12T02:06:52.208Z,9.01
2023-05-12T02:09:19.671Z,8.93
2023-05-12T02:11:47.026Z,8.98
2023-05-12T02:14:14.378Z,8.95
2023-05-12T02:16:41.888Z,8.88
2023-05-12T02:19:09.517Z,8.86
2023-05-12T02:21:37.157Z,8.95
2023-05-12T02:24:04.711Z,8.97
2023-05-12T02:26:32.171Z,9.03
2023-05-12T02:28:59.522Z,9.02
2023-05-12T02:31:26.925Z,9.02
2023-05-12T02:33:54.435Z,9.07
2023-05-12T02:36:21.810Z,9.10
2023-05-12T02:38:49.245Z,9.06
2023-05-12T02:41:16.708Z,8.99
2023-05-12T02:43:44.183Z,8.93
2023-05-12T02:46:11.719Z,8.90
2023-05-12T02:48:39.055Z,8.93
2023-05-12T02:51:06.476Z,8.95
2023-05-12T02:53:33.999Z,8.98
2023-05-12T02:56:01.569Z,8.95
2023-05-12T02:58:28.989Z,8.98
2023-05-12T03:01:03.345Z,8.92
2023-05-12T03:03:37.358Z,8.98
2023-05-12T03:06:06.294Z,9.03
2023-05-12T03:08:33.902Z,9.11
2023-05-12T03:11:01.303Z,9.13
2023-05-12T03:13:29.953Z,9.18
2023-05-12T03:16:01.586Z,9.27
2023-05-12T03:18:29.397Z,9.32
2023-05-12T03:20:57.074Z,9.37
2023-05-12T03:23:24.815Z,9.57
2023-05-12T03:25:52.225Z,9.59
2023-05-12T03:28:19.908Z,9.66
2023-05-12T03:30:47.315Z,9.66
2023-05-12T03:33:14.831Z,9.68
2023-05-12T03:35:42.586Z,9.78
2023-05-12T03:38:10.011Z,9.84
2023-05-12T03:40:37.501Z,10.01
2023-05-12T03:43:04.892Z,10.14
2023-05-12T03:45:32.384Z,10.24
2023-05-12T03:48:00.083Z,10.34
2023-05-12T03:50:27.483Z,10.34
2023-05-12T03:52:56.201Z,10.39
2023-05-12T03:55:23.787Z,10.47
2023-05-12T03:57:51.541Z,10.62
2023-05-12T04:00:19.537Z,10.56
2023-05-12T04:02:47.220Z,10.63
2023-05-12T04:05:14.931Z,10.77
2023-05-12T04:07:44.334Z,10.85
2023-05-12T04:10:11.787Z,10.98
2023-05-12T04:12:39.384Z,11.11
2023-05-12T04:15:07.985Z,11.25
2023-05-12T04:17:36.334Z,11.40
2023-05-12T04:20:04.589Z,11.54
2023-05-12T04:22:32.179Z,11.69
2023-05-12T04:24:59.621Z,11.76
2023-05-12T04:27:26.990Z,11.85
2023-05-12T04:29:54.558Z,11.98
2023-05-12T04:32:22.038Z,12.08
2023-05-12T04:34:49.630Z,12.15
2023-05-12T04:37:17.240Z,12.28
2023-05-12T04:39:44.557Z,12.42
2023-05-12T04:42:11.944Z,12.53
2023-05-12T04:44:39.304Z,12.61
2023-05-12T04:47:06.759Z,12.74
2023-05-12T04:49:34.131Z,12.82
2023-05-12T04:52:01.786Z,12.94
2023-05-12T04:54:30.801Z,13.01
2023-05-12T04:56:58.451Z,13.02
2023-05-12T04:59:25.767Z,13.24
2023-05-12T05:01:53.356Z,13.38
2023-05-12T05:04:20.999Z,13.45
2023-05-12T05:06:48.560Z,13.51
2023-05-12T05:09:15.937Z,13.56
2023-05-12T05:11:43.926Z,13.74
2023-05-12T05:14:11.497Z,13.84
2023-05-12T05:16:39.141Z,13.94
2023-05-12T05:19:09.401Z,13.99
2023-05-12T05:21:46.778Z,14.00
2023-05-12T05:24:15.056Z,14.04
2023-05-12T05:26:42.628Z,14.17
2023-05-12T05:29:12.213Z,14.31
2023-05-12T05:31:39.571Z,14.40
2023-05-12T05:34:06.966Z,14.40
2023-05-12T05:36:34.455Z,14.53
2023-05-12T05:39:01.925Z,14.49
2023-05-12T05:41:29.358Z,14.51
2023-05-12T05:43:56.796Z,14.47
2023-05-12T05:46:27.112Z,14.74
2023-05-12T05:48:54.539Z,14.86
2023-05-12T05:51:21.936Z,14.91
2023-05-12T05:53:49.358Z,14.96
2023-05-12T05:56:16.893Z,14.94
2023-05-12T05:58:44.243Z,15.05
2023-05-12T06:01:11.833Z,15.09
2023-05-12T06:03:39.263Z,15.32
2023-05-12T06:06:06.975Z,15.41
2023-05-12T06:08:34.421Z,15.56
2023-05-12T06:11:01.841Z,15.51
2023-05-12T06:13:29.612Z,15.59
2023-05-12T06:15:57.089Z,15.78
2023-05-12T06:18:25.540Z,16.01
2023-05-12T06:20:55.284Z,16.10
2023-05-12T06:23:22.834Z,16.24
2023-05-12T06:25:50.620Z,16.02
2023-05-12T06:28:17.959Z,16.24
2023-05-12T06:30:45.432Z,16.49
2023-05-12T06:33:12.835Z,16.76
2023-05-12T06:35:40.274Z,17.02
2023-05-12T06:38:07.709Z,17.30
2023-05-12T06:40:35.598Z,17.44
2023-05-12T06:43:02.976Z,17.66
2023-05-12T06:45:30.474Z,17.83
2023-05-12T06:47:57.971Z,17.97
2023-05-12T06:50:25.389Z,18.20
2023-05-12T06:52:53.544Z,18.27
2023-05-12T06:55:21.346Z,18.25
2023-05-12T06:57:51.739Z,18.55
2023-05-12T07:00:19.414Z,18.40
2023-05-12T07:02:46.861Z,18.59
2023-05-12T07:05:15.519Z,18.94
2023-05-12T07:07:44.583Z,19.12
2023-05-12T07:10:12.595Z,19.27
2023-05-12T07:12:40.104Z,19.34
2023-05-12T07:15:08.619Z,19.41
2023-05-12T07:17:36.171Z,19.34
2023-05-12T07:20:05.058Z,19.61
2023-05-12T07:22:32.882Z,19.70
2023-05-12T07:25:00.268Z,19.87
2023-05-12T07:27:27.696Z,19.96
2023-05-12T07:29:55.092Z,19.87
2023-05-12T07:32:22.464Z,19.90
2023-05-12T07:34:49.815Z,20.15
2023-05-12T07:37:18.197Z,20.35
2023-05-12T07:39:45.786Z,20.48
2023-05-12T07:42:13.277Z,20.51
2023-05-12T07:44:41.422Z,20.29
2023-05-12T07:47:08.961Z,20.51
2023-05-12T07:49:36.547Z,20.49
2023-05-12T07:52:04.244Z,20.29
2023-05-12T07:54:32.318Z,20.49
2023-05-12T07:56:59.748Z,20.59
2023-05-12T07:59:27.201Z,20.58
2023-05-12T08:01:54.640Z,20.88
2023-05-12T08:04:22.423Z,20.96
2023-05-12T08:06:49.859Z,21.35
2023-05-12T08:09:18.314Z,21.21
2023-05-12T08:11:48.110Z,21.17
2023-05-12T08:14:17.579Z,21.37
2023-05-12T08:16:46.570Z,20.89
2023-05-12T08:19:14.178Z,21.31
2023-05-12T08:21:41.641Z,21.50
2023-05-12T08:24:09.299Z,21.51
2023-05-12T08:26:36.686Z,21.53
2023-05-12T08:29:05.920Z,21.74
2023-05-12T08:31:33.460Z,21.67
2023-05-12T08:34:09.590Z,21.73
2023-05-12T08:36:38.538Z,21.75
2023-05-12T08:39:06.268Z,21.61
2023-05-12T08:41:49.090Z,22.11
2023-05-12T08:44:17.870Z,22.21
2023-05-12T08:46:45.949Z,22.27
2023-05-12T08:49:17.129Z,22.33
2023-05-12T08:51:56.825Z,22.46
2023-05-12T08:54:27.675Z,22.54
2023-05-12T08:59:26.136Z,22.63
2023-05-12T09:01:55.442Z,22.83
2023-05-12T09:04:22.987Z,22.69
2023-05-12T09:06:52.033Z,22.63
2023-05-12T09:09:21.406Z,22.82
2023-05-12T09:11:53.379Z,22.97
2023-05-12T09:14:27.932Z,22.65
2023-05-12T09:17:03.735Z,22.50
2023-05-12T09:19:31.593Z,22.80
2023-05-12T09:22:00.497Z,22.77
2023-05-12T09:24:38.200Z,22.97
2023-05-12T09:27:06.101Z,22.90
2023-05-12T09:29:37.458Z,23.09
2023-05-12T09:32:07.220Z,23.24
2023-05-12T09:34:38.446Z,23.52
2023-05-12T09:37:07.405Z,23.50
2023-05-12T09:39:35.356Z,23.66
2023-05-12T09:42:02.745Z,23.35
2023-05-12T09:44:32.015Z,23.60
2023-05-12T09:47:10.410Z,23.63
2023-05-12T09:49:38.383Z,23.93
2023-05-12T09:52:07.248Z,23.99
2023-05-12T09:54:34.605Z,24.13
2023-05-12T09:57:05.092Z,24.07
2023-05-12T09:59:38.558Z,23.90
2023-05-12T10:02:09.615Z,24.25
2023-05-12T10:04:52.995Z,24.35
2023-05-12T10:07:24.022Z,24.40
2023-05-12T10:09:51.455Z,24.53
2023-05-12T10:12:19.207Z,24.75
2023-05-12T10:14:48.449Z,24.79
2023-05-12T10:17:17.077Z,24.82
2023-05-12T10:19:45.155Z,24.65
2023-05-12T10:22:16.132Z,24.77
2023-05-12T10:24:45.771Z,24.80
2023-05-12T10:27:17.280Z,24.76
2023-05-12T10:29:46.895Z,24.74
2023-05-12T10:32:14.712Z,24.88
2023-05-12T10:34:44.916Z,25.06
2023-05-12T10:37:13.207Z,24.79
2023-05-12T10:39:49.200Z,24.52
2023-05-12T10:42:25.160Z,25.17
2023-05-12T10:44:54.236Z,24.81
2023-05-12T10:47:27.185Z,24.64
2023-05-12T10:50:01.086Z,24.68
2023-05-12T10:52:28.706Z,24.65
2023-05-12T10:55:04.396Z,24.88
2023-05-12T10:57:33.453Z,25.14
2023-05-12T11:00:03.552Z,25.11
2023-05-12T11:02:34.669Z,24.93
2023-05-12T11:05:10.554Z,24.67
2023-05-12T11:07:39.673Z,25.02
2023-05-12T11:10:08.389Z,24.82
2023-05-12T11:12:37.402Z,24.48
2023-05-12T11:15:06.395Z,24.65
2023-05-12T11:17:37.879Z,24.56
2023-05-12T11:20:05.838Z,24.88
2023-05-12T11:22:33.978Z,24.94
2023-05-12T11:25:10.424Z,25.10
2023-05-12T11:27:44.841Z,25.18
2023-05-12T11:30:12.388Z,24.97
2023-05-12T11:32:40.110Z,25.09
2023-05-12T11:35:12.426Z,25.37
2023-05-12T11:37:41.668Z,25.33
2023-05-12T11:40:17.499Z,25.50
2023-05-12T11:42:48.959Z,25.49
2023-05-12T11:45:23.793Z,25.55
2023-05-12T11:47:51.682Z,25.93
2023-05-12T11:50:24.093Z,25.75
2023-05-12T11:52:53.119Z,25.90
2023-05-12T11:55:25.521Z,26.33
2023-05-12T11:57:58.782Z,26.34
2023-05-12T12:00:32.536Z,26.82
2023-05-12T12:03:08.409Z,26.74
2023-05-12T12:05:36.195Z,26.66
2023-05-12T12:08:12.574Z,27.16
2023-05-12T12:10:44.665Z,26.96
2023-05-12T12:13:13.850Z,27.12
2023-05-12T12:15:41.204Z,26.88
2023-05-12T12:18:10.326Z,27.04
2023-05-12T12:20:37.869Z,27.16
2023-05-12T12:23:05.298Z,27.33
2023-05-12T12:25:32.823Z,26.94
2023-05-12T12:28:00.189Z,27.09
2023-05-12T12:30:27.822Z,27.17
2023-05-12T12:32:55.246Z,27.34
2023-05-12T12:35:24.487Z,27.00
2023-05-12T12:37:52.048Z,27.18
2023-05-12T12:40:20.328Z,27.41
2023-05-12T12:42:47.908Z,27.62
2023-05-12T12:45:15.773Z,27.70
2023-05-12T12:47:44.319Z,27.40
2023-05-12T12:50:11.771Z,28.08
2023-05-12T12:52:39.549Z,27.59
2023-05-12T12:55:07.683Z,27.83
2023-05-12T12:57:35.506Z,27.96
2023-05-12T13:00:04.766Z,28.34
2023-05-12T13:02:33.648Z,27.95
2023-05-12T13:05:04.240Z,28.02
2023-05-12T13:07:32.107Z,28.23
2023-05-12T13:09:59.544Z,28.02
2023-05-12T13:12:28.314Z,28.33
2023-05-12T13:14:55.766Z,28.11
2023-05-12T13:17:23.452Z,28.38
2023-05-12T13:19:50.830Z,28.83
2023-05-12T13:22:18.721Z,28.65
2023-05-12T13:24:46.741Z,28.87
2023-05-12T13:27:14.208Z,28.69
2023-05-12T13:29:42.431Z,28.53
2023-05-12T13:32:10.063Z,28.59
2023-05-12T13:34:37.391Z,28.04
2023-05-12T13:37:05.002Z,28.56
2023-05-12T13:39:32.708Z,28.51
2023-05-12T13:42:00.109Z,28.63
2023-05-12T13:44:27.652Z,28.90
2023-05-12T13:46:55.001Z,28.73
2023-05-12T13:49:22.411Z,28.96
2023-05-12T13:51:49.812Z,29.41
2023-05-12T13:54:17.231Z,28.79
2023-05-12T13:56:44.571Z,28.96
2023-05-12T13:59:13.244Z,28.31
2023-05-12T14:01:41.255Z,27.49
2023-05-12T14:04:08.741Z,26.78
2023-05-12T14:06:36.521Z,26.07
2023-05-12T14:09:07.536Z,25.79
2023-05-12T14:11:35.382Z,25.54
2023-05-12T14:14:04.310Z,25.15
2023-05-12T14:16:32.744Z,24.83
2023-05-12T14:19:00.603Z,24.86
2023-05-12T14:21:28.291Z,24.95
2023-05-12T14:23:55.641Z,24.49
2023-05-12T14:26:25.596Z,24.40
2023-05-12T14:28:53.097Z,24.41
2023-05-12T14:31:20.632Z,24.03
2023-05-12T14:33:48.036Z,24.03
2023-05-12T14:36:15.388Z,24.13
2023-05-12T14:38:42.769Z,23.95
2023-05-12T14:41:10.115Z,23.75
2023-05-12T14:43:38.410Z,23.93
2023-05-12T14:46:06.625Z,23.48
2023-05-12T14:48:35.009Z,23.45
2023-05-12T14:51:03.436Z,23.39
2023-05-12T14:53:31.372Z,23.12
2023-05-12T14:55:58.775Z,23.14
2023-05-12T14:58:26.232Z,23.08
2023-05-12T15:00:53.921Z,22.99
2023-05-12T15:03:21.609Z,22.94
2023-05-12T15:06:04.916Z,22.86
2023-05-12T15:08:34.395Z,22.74
2023-05-12T15:11:01.759Z,22.89
2023-05-12T15:13:29.257Z,22.75
2023-05-12T15:15:57.118Z,22.49
2023-05-12T15:18:24.993Z,22.42
2023-05-12T15:20:52.417Z,22.58
2023-05-12T15:23:19.821Z,22.50
2023-05-12T15:25:47.736Z,22.46
2023-05-12T15:28:15.172Z,22.55
2023-05-12T15:30:42.683Z,22.44
2023-05-12T15:33:10.499Z,22.25
2023-05-12T15:35:39.691Z,22.35
2023-05-12T15:38:07.369Z,22.26
2023-05-12T15:40:35.086Z,22.37
2023-05-12T15:43:02.641Z,22.14
2023-05-12T15:45:31.464Z,22.14
2023-05-12T15:47:59.103Z,22.17
2023-05-12T15:50:26.568Z,22.05
2023-05-12T15:52:53.905Z,22.12
2023-05-12T15:55:21.624Z,22.05
2023-05-12T15:57:49.956Z,21.95
2023-05-12T16:00:18.067Z,21.79
2023-05-12T16:02:46.270Z,21.54
2023-05-12T16:05:13.759Z,21.52
2023-05-12T16:07:41.176Z,21.47
2023-05-12T16:10:09.182Z,21.27
2023-05-12T16:12:36.626Z,21.23
2023-05-12T16:15:05.100Z,21.16
2023-05-12T16:17:33.617Z,21.05
2023-05-12T16:20:02.142Z,20.95
2023-05-12T16:22:30.145Z,20.74
2023-05-12T16:24:57.693Z,20.78
2023-05-12T16:27:25.572Z,20.70
2023-05-12T16:29:53.752Z,20.68
2023-05-12T16:32:21.163Z,20.72
2023-05-12T16:34:48.661Z,20.66
2023-05-12T16:37:16.053Z,20.59
2023-05-12T16:39:43.527Z,20.55
2023-05-12T16:42:10.871Z,20.38
2023-05-12T16:44:38.373Z,20.24
2023-05-12T16:47:05.995Z,20.07
2023-05-12T16:49:33.388Z,19.97
2023-05-12T16:52:00.922Z,19.89
2023-05-12T16:54:30.654Z,19.71
2023-05-12T16:56:59.117Z,19.71
2023-05-12T16:59:26.584Z,19.61
2023-05-12T17:01:54.090Z,19.50
2023-05-12T17:04:21.592Z,19.41
2023-05-12T17:06:50.191Z,19.33
2023-05-12T17:09:18.214Z,19.37
2023-05-12T17:11:45.702Z,19.30
2023-05-12T17:14:13.557Z,19.18
2023-05-12T17:16:40.978Z,18.99
2023-05-12T17:21:39.277Z,18.64
2023-05-12T17:24:08.189Z,18.59
2023-05-12T17:26:35.878Z,18.53
2023-05-12T17:29:03.333Z,18.52
2023-05-12T17:31:30.916Z,18.43
2023-05-12T17:33:58.434Z,18.31
2023-05-12T17:36:26.038Z,18.33
2023-05-12T17:38:53.482Z,18.07
2023-05-12T17:41:21.680Z,17.84
2023-05-12T17:43:49.022Z,17.72
2023-05-12T17:46:16.793Z,17.64
2023-05-12T17:48:44.219Z,17.51
2023-05-12T17:51:11.773Z,17.43
2023-05-12T17:53:39.203Z,17.64
2023-05-12T17:56:06.781Z,17.70
2023-05-12T17:58:34.439Z,17.76
2023-05-12T18:01:02.229Z,17.71
2023-05-12T18:03:30.100Z,17.74
2023-05-12T18:05:57.533Z,17.61
2023-05-12T18:08:25.064Z,17.72
2023-05-12T18:10:52.528Z,17.78
2023-05-12T18:13:19.971Z,17.65
2023-05-12T18:15:50.123Z,17.48
2023-05-12T18:18:17.993Z,17.44
2023-05-12T18:20:45.500Z,17.46
2023-05-12T18:23:12.927Z,17.58
2023-05-12T18:25:40.408Z,17.66
2023-05-12T18:28:07.832Z,17.42
2023-05-12T18:30:35.805Z,17.42
2023-05-12T18:33:03.451Z,17.34
2023-05-12T18:35:31.579Z,17.32
2023-05-12T18:37:58.951Z,17.27
2023-05-12T18:40:26.434Z,17.12
2023-05-12T18:42:54.882Z,17.05
2023-05-12T18:45:23.473Z,16.98
2023-05-12T18:47:51.055Z,17.01
2023-05-12T18:50:18.487Z,16.98
2023-05-12T18:52:45.907Z,16.95
2023-05-12T18:55:13.213Z,16.80
2023-05-12T18:57:40.630Z,16.79
2023-05-12T19:00:10.120Z,16.88
2023-05-12T19:02:37.799Z,16.71
2023-05-12T19:05:05.691Z,16.62
2023-05-12T19:07:33.122Z,16.69
2023-05-12T19:10:00.533Z,16.50
2023-05-12T19:12:28.026Z,16.46
2023-05-12T19:14:55.568Z,16.49
2023-05-12T19:17:23.011Z,16.36
2023-05-12T19:19:50.732Z,16.49
2023-05-12T19:22:18.188Z,16.36
2023-05-12T19:24:45.915Z,16.37
2023-05-12T19:27:13.288Z,16.28
2023-05-12T19:29:40.695Z,16.33
2023-05-12T19:32:08.312Z,16.37
2023-05-12T19:34:36.639Z,16.35
2023-05-12T19:37:05.472Z,16.19
2023-05-12T19:39:32.926Z,15.77
2023-05-12T19:42:00.418Z,15.62
2023-05-12T19:44:29.903Z,15.36
2023-05-12T19:46:59.526Z,15.54
2023-05-12T19:49:26.978Z,15.26
2023-05-12T19:51:54.555Z,15.13
2023-05-12T19:54:21.968Z,15.14
2023-05-12T19:56:49.343Z,14.91
2023-05-12T19:59:16.725Z,14.89
2023-05-12T20:01:44.402Z,14.72
2023-05-12T20:04:11.843Z,14.80
2023-05-12T20:06:40.369Z,14.67
2023-05-12T20:09:08.160Z,14.67
2023-05-12T20:11:35.802Z,14.57
2023-05-12T20:14:03.136Z,14.63
2023-05-12T20:16:31.010Z,14.61
2023-05-12T20:18:59.559Z,14.71
2023-05-12T20:21:28.611Z,14.76
2023-05-12T20:23:55.928Z,14.71
2023-05-12T20:26:23.508Z,14.82
2023-05-12T20:28:51.433Z,14.67
2023-05-12T20:31:20.168Z,14.59
2023-05-12T20:33:47.610Z,14.60
2023-05-12T20:36:14.987Z,14.70
2023-05-12T20:38:42.316Z,14.52
2023-05-12T20:41:09.912Z,14.40
2023-05-12T20:43:37.448Z,14.45
2023-05-12T20:46:05.256Z,14.20
2023-05-12T20:48:33.201Z,14.16
2023-05-12T20:51:10.848Z,14.14
2023-05-12T20:53:38.775Z,14.06
2023-05-12T20:56:08.395Z,14.00
2023-05-12T20:58:36.780Z,13.99
2023-05-12T21:01:04.441Z,13.92
2023-05-12T21:03:36.019Z,13.92
2023-05-12T21:06:05.695Z,13.86
2023-05-12T21:08:33.845Z,13.79
2023-05-12T21:11:01.303Z,13.76
2023-05-12T21:13:28.822Z,13.84
2023-05-12T21:15:56.537Z,13.76
2023-05-12T21:18:24.500Z,13.77
2023-05-12T21:20:51.937Z,13.64
2023-05-12T21:23:19.258Z,13.48
2023-05-12T21:25:46.589Z,13.50
2023-05-12T21:28:14.019Z,13.45
2023-05-12T21:30:41.372Z,13.39
2023-05-12T21:33:08.862Z,13.42
2023-05-12T21:35:37.073Z,13.41
2023-05-12T21:38:06.089Z,13.40
2023-05-12T21:40:33.714Z,13.46
2023-05-12T21:43:01.031Z,13.51
2023-05-12T21:45:28.492Z,13.31
2023-05-12T21:47:55.913Z,13.24
2023-05-12T21:50:23.384Z,13.29
2023-05-12T21:52:51.092Z,13.32
2023-05-12T21:55:18.500Z,13.24
2023-05-12T21:57:45.960Z,13.24
2023-05-12T22:00:14.759Z,13.35
2023-05-12T22:02:43.153Z,13.20
2023-05-12T22:05:10.678Z,13.10
2023-05-12T22:07:38.472Z,13.04
2023-05-12T22:10:06.616Z,13.01
2023-05-12T22:12:34.689Z,12.96
2023-05-12T22:15:02.218Z,12.94
2023-05-12T22:17:29.755Z,12.93
2023-05-12T22:19:57.318Z,12.97
2023-05-12T22:22:24.799Z,12.84
2023-05-12T22:24:52.123Z,12.81
2023-05-12T22:27:22.496Z,12.78
2023-05-12T22:29:49.879Z,12.78
2023-05-12T22:32:17.291Z,12.81
2023-05-12T22:34:44.730Z,12.69
2023-05-12T22:37:12.100Z,12.64
2023-05-12T22:39:39.595Z,12.59
2023-05-12T22:42:07.068Z,12.63
2023-05-12T22:44:35.528Z,12.61
2023-05-12T22:47:02.909Z,12.56
2023-05-12T22:49:30.432Z,12.54
2023-05-12T22:51:58.094Z,12.49
2023-05-12T22:54:25.572Z,12.45
2023-05-12T22:56:52.922Z,12.36
2023-05-12T22:59:20.527Z,12.29
2023-05-12T23:01:47.923Z,12.26
2023-05-12T23:04:15.410Z,12.31
2023-05-12T23:06:42.795Z,12.20
2023-05-12T23:09:10.714Z,12.26
2023-05-12T23:11:38.501Z,12.35
2023-05-12T23:14:06.061Z,12.42
2023-05-12T23:16:33.580Z,12.28
2023-05-12T23:19:00.948Z,12.33
2023-05-12T23:21:28.437Z,12.22
2023-05-12T23:23:55.771Z,12.14
2023-05-12T23:26:23.201Z,12.09
2023-05-12T23:28:50.627Z,12.20
2023-05-12T23:31:18.070Z,12.28
2023-05-12T23:33:45.564Z,12.03
2023-05-12T23:36:13.654Z,11.82
2023-05-12T23:38:41.261Z,11.76
2023-05-12T23:41:08.712Z,11.71
2023-05-12T23:43:36.806Z,11.74
2023-05-12T23:46:04.601Z,11.73
2023-05-12T23:48:32.460Z,11.93
2023-05-12T23:50:59.785Z,11.71
2023-05-12T23:53:27.135Z,11.66
2023-05-12T23:55:54.663Z,11.63
2023-05-12T23:58:22.046Z,11.57
